SBOSBO LIN / LIML
Speedbird OnlineSpeedbird Online LIN / LIML

Milano Linate Airport
17:00 20.9°C

Location Milan, Italy
Latitude: 45.445099
Longitude: 9.27674
Local Time 17:00 on 30 May 2024
UTC +2 hours (Europe/Rome)
Currency £1 equals EUR 1.18
METAR LIML 301420Z VRB05KT 9999 FEW030 BKN060 22/15 Q1004 NOSIG
TAF TAF LIML 301100Z 3012/3112 10007KT 9999 SCT040 TEMPO 3016/3103 3000 +TSRA BECMG 3109/3111 34010KT
Weather As Of 30 May 2024 17:00
Description Broken clouds
Wind 9 km/h from North (0°)
Cloud Cover 75%
Precipitation Rain: none, Snow: none
Sunrise 05:39
Sunset 21:02
NOTAM 29 active NOTAM
Rotations During the last 90 days there were
355 flights from LHR
10 flights from LCY
362 flights to LHR
10 flights to LCY
Lounges British Airways Lounge (Open), Main Departures Area
Sala Leonardo, main terminal
Web Airport Website | Wikipedia
Codes IATA: LIN
ICAO: LIML
Altitude 108 Meter / 353 Feet
Distance 953 KM / 592 Miles
from London.
Runways
RunwayLength (m)Surface
17601Tarmac
182440Asphalt
35601Tarmac
362440Asphalt
Radio
TypeDescriptionFrequency
APPMILANO APP132.7
ATISATIS135.55
DEPMILANO DEP126.75
GNDGND121.8
TWRTWR118.1
Live ATC



Support Speedbird Online

© 2017-2024 Speedbird Online